Time;durP1;ratioP1;P1;durP2;ratioP2;P2;SDS_P1;SDS_P2;PMS_P1;PMS_P2;Temp;Humidity;BMP_temperature;BMP_pressure;BME280_temperature;BME280_humidity;BME280_pressure;Samples;Min_cycle;Max_cycle;Signal;HPM_P1;HPM_P2
2024/01/17 00:00:51;;;;;;;122.32;39.80;;;;;;;;;;5078399;28;20195;-68
2024/01/17 00:03:18;;;;;;;142.05;45.13;;;;;;;;;;5095526;28;20188;-68
2024/01/17 00:05:45;;;;;;;136.45;43.08;;;;;;;;;;5096131;28;20753;-68
2024/01/17 00:08:12;;;;;;;152.20;44.72;;;;;;;;;;5078480;28;20235;-68
2024/01/17 00:10:39;;;;;;;124.63;41.05;;;;;;;;;;5095038;28;20189;-68
2024/01/17 00:13:06;;;;;;;144.50;45.47;;;;;;;;;;5077920;28;20298;-68
2024/01/17 00:15:33;;;;;;;155.57;46.30;;;;;;;;;;5077750;28;20209;-68
2024/01/17 00:18:00;;;;;;;127.90;43.40;;;;;;;;;;5095924;28;20180;-68
2024/01/17 00:20:44;;;;;;;167.07;51.30;;;;;;;;;;5095866;28;20165;-68
2024/01/17 00:23:10;;;;;;;139.20;47.05;;;;;;;;;;5087148;28;20208;-68
2024/01/17 00:25:37;;;;;;;145.35;43.90;;;;;;;;;;5077510;28;20249;-68
2024/01/17 00:28:04;;;;;;;154.68;47.03;;;;;;;;;;5077604;28;20247;-68
2024/01/17 00:30:31;;;;;;;136.23;43.53;;;;;;;;;;5061164;28;20723;-68
2024/01/17 00:32:58;;;;;;;120.07;41.97;;;;;;;;;;5077392;28;20213;-68
2024/01/17 00:35:25;;;;;;;152.70;46.97;;;;;;;;;;5077913;28;20217;-68
2024/01/17 00:37:52;;;;;;;165.43;51.90;;;;;;;;;;5095303;28;20201;-68
2024/01/17 00:40:19;;;;;;;176.38;51.85;;;;;;;;;;5095473;28;20527;-68
2024/01/17 00:42:45;;;;;;;166.18;48.58;;;;;;;;;;5077259;28;20573;-68
2024/01/17 00:45:13;;;;;;;126.43;43.38;;;;;;;;;;5095303;28;20272;-68
2024/01/17 00:47:40;;;;;;;153.85;49.08;;;;;;;;;;5077212;28;20267;-68
2024/01/17 00:50:07;;;;;;;147.88;45.00;;;;;;;;;;5095265;28;20586;-67
2024/01/17 00:52:34;;;;;;;159.05;46.97;;;;;;;;;;5077291;28;20209;-68
2024/01/17 00:55:01;;;;;;;130.35;42.15;;;;;;;;;;5077015;28;20227;-67
2024/01/17 00:57:28;;;;;;;145.77;44.78;;;;;;;;;;5095151;28;20177;-68
2024/01/17 00:59:54;;;;;;;117.25;41.65;;;;;;;;;;5095066;28;20190;-67
2024/01/17 01:02:21;;;;;;;118.47;40.03;;;;;;;;;;5095272;28;20702;-67
2024/01/17 01:04:48;;;;;;;132.07;41.42;;;;;;;;;;5094691;28;20189;-67
2024/01/17 01:07:16;;;;;;;127.75;40.75;;;;;;;;;;5076834;28;20528;-67
2024/01/17 01:09:43;;;;;;;125.47;39.00;;;;;;;;;;5076646;28;20191;-67
2024/01/17 01:12:09;;;;;;;106.10;35.42;;;;;;;;;;5076634;28;20221;-67
2024/01/17 01:53:29;;;;;;;68.57;21.70;;;;;;;;;;5094180;28;20173;-67
2024/01/17 01:55:56;;;;;;;45.33;17.27;;;;;;;;;;5075849;28;20295;-67
2024/01/17 01:58:23;;;;;;;64.47;22.60;;;;;;;;;;5075744;28;20192;-67
2024/01/17 02:00:49;;;;;;;88.55;27.58;;;;;;;;;;5059661;28;20650;-68
2024/01/17 02:03:16;;;;;;;91.55;27.95;;;;;;;;;;5093994;28;20209;-68
2024/01/17 02:05:43;;;;;;;66.35;26.48;;;;;;;;;;5093975;28;20215;-68
2024/01/17 02:08:10;;;;;;;75.22;24.25;;;;;;;;;;5059457;28;20196;-68
2024/01/17 02:10:37;;;;;;;70.43;23.25;;;;;;;;;;5076279;28;20188;-68
2024/01/17 02:13:03;;;;;;;66.80;24.65;;;;;;;;;;5075962;28;20186;-68
2024/01/17 02:15:30;;;;;;;72.80;23.80;;;;;;;;;;5059036;28;20201;-68
2024/01/17 02:17:57;;;;;;;56.97;20.60;;;;;;;;;;5076001;28;20520;-68
2024/01/17 02:20:24;;;;;;;62.27;21.73;;;;;;;;;;5058874;28;20275;-68
2024/01/17 02:22:51;;;;;;;57.20;19.75;;;;;;;;;;5042728;28;20530;-68
2024/01/17 02:25:17;;;;;;;55.10;19.10;;;;;;;;;;5075290;28;20204;-68
2024/01/17 02:27:44;;;;;;;64.87;24.37;;;;;;;;;;5075808;28;20447;-68
2024/01/17 02:30:11;;;;;;;43.33;18.07;;;;;;;;;;5093483;28;20468;-68
2024/01/17 02:32:38;;;;;;;51.27;18.93;;;;;;;;;;5096981;28;20771;-68
2024/01/17 02:35:07;;;;;;;46.47;17.83;;;;;;;;;;5098130;28;20455;-68
2024/01/17 02:37:34;;;;;;;46.70;16.50;;;;;;;;;;5079701;28;20439;-68
2024/01/17 02:40:00;;;;;;;43.13;16.53;;;;;;;;;;5097720;28;20434;-68
2024/01/17 02:42:27;;;;;;;42.00;16.87;;;;;;;;;;5063245;28;20419;-68
2024/01/17 02:44:53;;;;;;;42.23;16.93;;;;;;;;;;5079348;28;20429;-68
2024/01/17 02:47:20;;;;;;;34.80;15.07;;;;;;;;;;5097522;28;20416;-68
2024/01/17 02:49:47;;;;;;;41.73;16.07;;;;;;;;;;5079568;28;20441;-68
2024/01/17 02:52:14;;;;;;;41.53;15.47;;;;;;;;;;5097188;28;20750;-68
2024/01/17 02:54:41;;;;;;;40.67;15.87;;;;;;;;;;5097375;28;20469;-69
2024/01/17 02:57:08;;;;;;;39.50;14.90;;;;;;;;;;5062999;28;20419;-68
2024/01/17 02:59:36;;;;;;;38.37;14.60;;;;;;;;;;5079387;28;20419;-68
2024/01/17 03:02:04;;;;;;;35.87;14.90;;;;;;;;;;5097073;28;20430;-68
2024/01/17 03:04:31;;;;;;;39.47;15.80;;;;;;;;;;5097350;28;20427;-68
2024/01/17 03:06:58;;;;;;;36.40;15.50;;;;;;;;;;5096857;28;20452;-68
2024/01/17 03:09:25;;;;;;;38.70;15.93;;;;;;;;;;5097677;28;20434;-68
2024/01/17 03:11:51;;;;;;;37.73;16.37;;;;;;;;;;5096734;28;20507;-68
2024/01/17 03:14:18;;;;;;;44.17;17.60;;;;;;;;;;5062460;28;20496;-69
2024/01/17 03:16:45;;;;;;;35.60;16.17;;;;;;;;;;5078900;28;20430;-69
2024/01/17 03:19:13;;;;;;;37.00;15.67;;;;;;;;;;5079019;28;20514;-68
2024/01/17 03:21:43;;;;;;;36.67;16.20;;;;;;;;;;5097523;28;20446;-69
2024/01/17 03:24:10;;;;;;;40.97;15.80;;;;;;;;;;5071216;28;20463;-69
2024/01/17 03:26:54;;;;;;;38.83;16.40;;;;;;;;;;5096894;28;20391;-69
2024/01/17 03:29:21;;;;;;;37.63;17.70;;;;;;;;;;5079180;28;20447;-69
2024/01/17 03:32:05;;;;;;;40.60;17.33;;;;;;;;;;5096677;28;20491;-68
2024/01/17 03:34:31;;;;;;;41.93;17.60;;;;;;;;;;5079046;28;20785;-69
2024/01/17 03:37:15;;;;;;;37.23;17.27;;;;;;;;;;5079089;28;20494;-69
2024/01/17 03:39:43;;;;;;;41.37;18.00;;;;;;;;;;5077511;28;20493;-77
2024/01/17 03:42:15;;;;;;;34.20;16.47;;;;;;;;;;5045498;28;20438;-79
2024/01/17 03:44:43;;;;;;;39.83;16.83;;;;;;;;;;5062860;28;20799;-78
2024/01/17 03:47:10;;;;;;;45.47;17.53;;;;;;;;;;5062381;28;20417;-77
2024/01/17 03:49:37;;;;;;;44.33;17.33;;;;;;;;;;5061960;28;20442;-78
2024/01/17 03:52:04;;;;;;;43.07;19.43;;;;;;;;;;5062232;28;20428;-79
2024/01/17 03:54:31;;;;;;;39.83;17.87;;;;;;;;;;5045816;28;20917;-77
2024/01/17 03:56:58;;;;;;;42.53;16.53;;;;;;;;;;5078456;28;20533;-78
2024/01/17 03:59:25;;;;;;;41.53;16.97;;;;;;;;;;5078865;28;20434;-79
2024/01/17 04:01:52;;;;;;;42.50;16.53;;;;;;;;;;5061947;28;20413;-77
2024/01/17 04:04:18;;;;;;;36.27;16.57;;;;;;;;;;5078776;28;20439;-78
2024/01/17 04:06:45;;;;;;;44.03;17.43;;;;;;;;;;5096825;28;20429;-75
2024/01/17 04:09:12;;;;;;;40.73;17.93;;;;;;;;;;5078314;28;20440;-80
2024/01/17 04:11:39;;;;;;;39.87;17.17;;;;;;;;;;5077696;28;20456;-74
2024/01/17 04:14:07;;;;;;;40.77;16.03;;;;;;;;;;5095951;28;20451;-81
2024/01/17 04:16:36;;;;;;;45.40;18.27;;;;;;;;;;5061341;28;20481;-80
2024/01/17 04:19:03;;;;;;;46.30;18.10;;;;;;;;;;5096480;28;20407;-80
2024/01/17 04:21:30;;;;;;;40.80;18.37;;;;;;;;;;5078166;28;20430;-80
2024/01/17 04:23:57;;;;;;;40.67;17.70;;;;;;;;;;5095977;28;20444;-74
2024/01/17 04:26:25;;;;;;;46.27;19.20;;;;;;;;;;5095966;28;20427;-77
2024/01/17 04:28:52;;;;;;;46.33;18.53;;;;;;;;;;5078166;28;20442;-76
2024/01/17 04:31:25;;;;;;;38.17;15.83;;;;;;;;;;5096074;28;20802;-75
2024/01/17 04:33:52;;;;;;;39.97;16.87;;;;;;;;;;5095799;28;20467;-76
2024/01/17 04:36:19;;;;;;;23.20;11.07;;;;;;;;;;5077993;28;20488;-76
2024/01/17 04:38:46;;;;;;;30.80;13.97;;;;;;;;;;5095595;28;20443;-77
2024/01/17 04:41:14;;;;;;;44.03;18.63;;;;;;;;;;5095794;28;20431;-81
2024/01/17 04:43:42;;;;;;;42.93;18.80;;;;;;;;;;5061993;28;20438;-80
2024/01/17 04:46:11;;;;;;;50.37;16.47;;;;;;;;;;5095792;28;20427;-81
2024/01/17 04:48:39;;;;;;;40.07;17.47;;;;;;;;;;5068318;28;20436;-80
2024/01/17 04:51:06;;;;;;;42.03;16.93;;;;;;;;;;5058234;28;20885;-83
2024/01/17 04:53:34;;;;;;;30.27;14.27;;;;;;;;;;5040482;28;20427;-82
2024/01/17 04:56:02;;;;;;;44.70;17.33;;;;;;;;;;5074864;28;20451;-81
2024/01/17 04:58:28;;;;;;;49.77;19.03;;;;;;;;;;5058909;28;20897;-82
2024/01/17 05:00:55;;;;;;;45.97;18.60;;;;;;;;;;5074911;28;20426;-70
2024/01/17 05:03:22;;;;;;;44.03;18.13;;;;;;;;;;5074923;28;20903;-70
2024/01/17 05:05:49;;;;;;;43.23;18.17;;;;;;;;;;5037040;28;20506;-70
2024/01/17 05:08:16;;;;;;;42.37;17.80;;;;;;;;;;5031199;28;20416;-69
2024/01/17 05:10:43;;;;;;;41.73;18.27;;;;;;;;;;5065392;28;20755;-70
2024/01/17 05:13:10;;;;;;;33.30;14.17;;;;;;;;;;5065280;28;20507;-69
2024/01/17 05:15:37;;;;;;;42.80;17.83;;;;;;;;;;5030505;28;20468;-71
2024/01/17 05:18:05;;;;;;;36.40;16.70;;;;;;;;;;5063852;28;21764;-68
2024/01/17 05:20:32;;;;;;;40.43;17.87;;;;;;;;;;5065333;28;20900;-69
2024/01/17 05:22:59;;;;;;;38.90;16.90;;;;;;;;;;5063662;28;20419;-69
2024/01/17 05:25:26;;;;;;;39.50;17.50;;;;;;;;;;5047062;28;20412;-69
2024/01/17 05:27:53;;;;;;;44.40;19.33;;;;;;;;;;5047199;28;20552;-79
2024/01/17 05:30:23;;;;;;;44.83;18.77;;;;;;;;;;5047087;28;20903;-81
2024/01/17 05:32:50;;;;;;;45.97;19.23;;;;;;;;;;5063577;28;20804;-81
2024/01/17 05:35:18;;;;;;;44.27;18.97;;;;;;;;;;5030319;28;20460;-73
2024/01/17 05:37:45;;;;;;;41.93;18.27;;;;;;;;;;5030476;28;20482;-71
2024/01/17 05:40:12;;;;;;;34.87;16.43;;;;;;;;;;5046675;28;20421;-72
2024/01/17 05:42:39;;;;;;;39.73;18.07;;;;;;;;;;5064919;28;20478;-71
2024/01/17 05:45:07;;;;;;;36.60;13.30;;;;;;;;;;5064916;28;20456;-71
2024/01/17 05:47:35;;;;;;;39.60;15.03;;;;;;;;;;5047015;28;20537;-72
2024/01/17 05:50:20;;;;;;;40.03;18.53;;;;;;;;;;5063156;28;20412;-71
2024/01/17 05:52:48;;;;;;;41.97;19.00;;;;;;;;;;5062010;28;20428;-76
2024/01/17 05:55:15;;;;;;;49.17;19.43;;;;;;;;;;5039665;28;20471;-75
2024/01/17 05:57:42;;;;;;;37.33;15.40;;;;;;;;;;5073924;28;20519;-74
2024/01/17 06:00:10;;;;;;;39.67;18.27;;;;;;;;;;5073489;28;20429;-74
2024/01/17 06:02:37;;;;;;;39.63;16.30;;;;;;;;;;5055849;28;20455;-74
2024/01/17 06:05:05;;;;;;;45.10;18.23;;;;;;;;;;5056139;28;20436;-74
2024/01/17 06:07:31;;;;;;;42.37;18.03;;;;;;;;;;5039486;28;20441;-74
2024/01/17 06:09:58;;;;;;;37.43;16.33;;;;;;;;;;5055656;28;20471;-76
2024/01/17 06:12:25;;;;;;;49.40;20.23;;;;;;;;;;5072178;28;20535;-75
2024/01/17 06:14:52;;;;;;;44.50;19.57;;;;;;;;;;5073023;28;20436;-75
2024/01/17 06:17:18;;;;;;;45.40;19.00;;;;;;;;;;5072862;28;20972;-76
2024/01/17 06:19:45;;;;;;;42.87;18.53;;;;;;;;;;5072388;28;20452;-75
2024/01/17 06:22:18;;;;;;;55.03;23.90;;;;;;;;;;5039672;28;20413;-75
2024/01/17 06:24:45;;;;;;;50.50;21.97;;;;;;;;;;5056925;28;20462;-76
2024/01/17 06:27:13;;;;;;;37.33;16.97;;;;;;;;;;5055727;28;20416;-76
2024/01/17 06:29:41;;;;;;;43.77;18.50;;;;;;;;;;5039415;28;20420;-76
2024/01/17 06:32:08;;;;;;;47.27;19.47;;;;;;;;;;5039159;28;20452;-76
2024/01/17 06:34:34;;;;;;;49.17;20.43;;;;;;;;;;5055563;28;20911;-76
2024/01/17 06:37:04;;;;;;;50.40;20.40;;;;;;;;;;5039597;28;20452;-76
2024/01/17 06:39:31;;;;;;;54.63;23.17;;;;;;;;;;5073294;28;20519;-76
2024/01/17 06:41:58;;;;;;;65.97;28.13;;;;;;;;;;5039058;28;21018;-76
2024/01/17 06:44:28;;;;;;;49.47;19.80;;;;;;;;;;5073787;28;20454;-76
2024/01/17 06:47:11;;;;;;;48.63;20.10;;;;;;;;;;5041682;28;20412;-76
2024/01/17 06:49:40;;;;;;;44.07;18.33;;;;;;;;;;5073776;28;20895;-76
2024/01/17 06:52:08;;;;;;;53.17;19.57;;;;;;;;;;5072820;28;20424;-76
2024/01/17 06:54:34;;;;;;;48.43;19.50;;;;;;;;;;5055465;28;20437;-76
2024/01/17 06:57:01;;;;;;;37.40;15.07;;;;;;;;;;5038797;28;20464;-76
2024/01/17 06:59:28;;;;;;;51.20;20.23;;;;;;;;;;5039741;28;20521;-75
2024/01/17 07:01:58;;;;;;;47.13;19.83;;;;;;;;;;5056059;28;20887;-76
2024/01/17 07:04:24;;;;;;;50.93;17.73;;;;;;;;;;5055464;28;20515;-76
2024/01/17 07:06:51;;;;;;;63.87;23.10;;;;;;;;;;5055595;28;20440;-76
2024/01/17 07:09:18;;;;;;;50.83;18.93;;;;;;;;;;5039569;28;20413;-75
2024/01/17 07:11:44;;;;;;;52.57;21.00;;;;;;;;;;5060868;28;20472;-76
2024/01/17 07:14:11;;;;;;;52.30;21.87;;;;;;;;;;5039007;28;20424;-76
2024/01/17 07:16:38;;;;;;;58.67;22.60;;;;;;;;;;5073708;28;20534;-76
2024/01/17 07:19:04;;;;;;;54.83;23.53;;;;;;;;;;5058832;28;20798;-76
2024/01/17 07:21:31;;;;;;;54.70;22.60;;;;;;;;;;5059339;28;20435;-76
2024/01/17 07:23:58;;;;;;;55.37;21.77;;;;;;;;;;5070568;28;20431;-76
2024/01/17 07:26:25;;;;;;;32.33;14.10;;;;;;;;;;5079154;28;20967;-76
2024/01/17 07:28:51;;;;;;;50.23;19.97;;;;;;;;;;5078877;28;20431;-76
2024/01/17 07:31:18;;;;;;;25.50;10.87;;;;;;;;;;5062089;28;20490;-76
2024/01/17 07:33:45;;;;;;;44.97;18.80;;;;;;;;;;5097043;28;20412;-76
2024/01/17 07:36:11;;;;;;;36.40;12.83;;;;;;;;;;5078539;28;20455;-76
2024/01/17 07:38:38;;;;;;;37.93;16.10;;;;;;;;;;5062258;28;20961;-76
2024/01/17 07:41:05;;;;;;;47.40;18.43;;;;;;;;;;5062300;28;20431;-76
2024/01/17 07:43:33;;;;;;;57.07;22.87;;;;;;;;;;5062186;28;20426;-76
2024/01/17 07:46:01;;;;;;;46.63;16.50;;;;;;;;;;5062584;28;20981;-76
2024/01/17 07:48:40;;;;;;;61.57;21.50;;;;;;;;;;5061898;28;20435;-76
2024/01/17 07:51:37;;;;;;;34.13;12.13;;;;;;;;;;5070868;28;20905;-76
2024/01/17 07:54:27;;;;;;;24.57;9.83;;;;;;;;;;5051037;28;20447;-76
2024/01/17 08:00:30;;;;;;;49.50;19.80;;;;;;;;;;5077867;28;20774;-75
2024/01/17 08:03:48;;;;;;;52.57;19.17;;;;;;;;;;5074372;28;20873;-76
2024/01/17 08:10:35;;;;;;;29.70;11.20;;;;;;;;;;5096193;28;20374;-75
2024/01/17 08:14:02;;;;;;;38.90;15.83;;;;;;;;;;5063580;28;20455;-76
2024/01/17 08:17:04;;;;;;;29.20;12.27;;;;;;;;;;5080897;28;20454;-75
2024/01/17 08:31:00;;;;;;;43.20;18.27;;;;;;;;;;4929033;29;20928;-76
2024/01/17 08:34:50;;;;;;;47.03;17.33;;;;;;;;;;4935779;29;20447;-76
2024/01/17 08:37:42;;;;;;;48.60;19.93;;;;;;;;;;4919059;29;20520;-76
2024/01/17 08:43:41;;;;;;;34.83;15.33;;;;;;;;;;4954814;29;20532;-76
2024/01/17 08:46:57;;;;;;;36.07;16.37;;;;;;;;;;4963201;28;20433;-76
2024/01/17 08:49:47;;;;;;;41.70;17.63;;;;;;;;;;5001636;28;20423;-76
2024/01/17 08:52:32;;;;;;;38.70;17.07;;;;;;;;;;4997131;28;20436;-76
2024/01/17 08:55:30;;;;;;;45.60;18.63;;;;;;;;;;5004684;28;20482;-76
2024/01/17 08:58:37;;;;;;;32.60;13.57;;;;;;;;;;5040176;28;20550;-75
2024/01/17 09:01:13;;;;;;;26.73;10.47;;;;;;;;;;5023943;28;20776;-75
2024/01/17 09:04:00;;;;;;;34.20;15.33;;;;;;;;;;5026998;28;20436;-75
2024/01/17 09:06:55;;;;;;;37.83;14.67;;;;;;;;;;5048449;28;20435;-75
2024/01/17 09:09:56;;;;;;;37.50;15.37;;;;;;;;;;5056879;28;20422;-75
2024/01/17 09:12:56;;;;;;;29.50;13.20;;;;;;;;;;5038780;28;20501;-75
2024/01/17 09:16:08;;;;;;;44.40;19.10;;;;;;;;;;5049474;28;20910;-75
2024/01/17 09:19:10;;;;;;;46.10;20.37;;;;;;;;;;5042230;28;20440;-75
2024/01/17 09:22:22;;;;;;;51.07;23.03;;;;;;;;;;5002038;28;20435;-76
2024/01/17 09:25:25;;;;;;;45.70;18.63;;;;;;;;;;5012722;28;20416;-76
2024/01/17 09:28:34;;;;;;;44.90;19.87;;;;;;;;;;5006186;28;20415;-75
2024/01/17 09:31:19;;;;;;;51.27;22.20;;;;;;;;;;4983027;28;20443;-75
2024/01/17 09:38:30;;;;;;;36.03;13.80;;;;;;;;;;5002888;28;20430;-75
2024/01/17 09:49:17;;;;;;;13.33;5.83;;;;;;;;;;5010664;28;20507;-75
2024/01/17 09:52:46;;;;;;;19.40;7.20;;;;;;;;;;5001209;28;20518;-75
2024/01/17 10:02:42;;;;;;;20.97;9.17;;;;;;;;;;5005599;28;20426;-75
2024/01/17 10:05:59;;;;;;;17.37;7.83;;;;;;;;;;5047900;28;20428;-75
2024/01/17 10:13:04;;;;;;;24.33;9.70;;;;;;;;;;5055660;28;20468;-75
2024/01/17 10:15:53;;;;;;;27.60;12.53;;;;;;;;;;5057759;28;20396;-74
2024/01/17 10:18:40;;;;;;;19.63;8.17;;;;;;;;;;5040816;28;20459;-75
2024/01/17 10:22:09;;;;;;;25.73;12.63;;;;;;;;;;5046648;28;20424;-75
2024/01/17 10:25:20;;;;;;;24.57;11.43;;;;;;;;;;5063493;28;20798;-75
2024/01/17 10:28:19;;;;;;;31.93;13.87;;;;;;;;;;5057207;28;20456;-75
2024/01/17 10:31:06;;;;;;;28.57;13.50;;;;;;;;;;5045566;28;20844;-75
2024/01/17 10:34:07;;;;;;;19.53;8.63;;;;;;;;;;5054549;28;20444;-75
2024/01/17 10:36:52;;;;;;;16.77;5.93;;;;;;;;;;5041437;28;20490;-75
2024/01/17 10:39:19;;;;;;;19.97;8.77;;;;;;;;;;5055634;28;20425;-75
2024/01/17 10:41:54;;;;;;;23.07;10.77;;;;;;;;;;5055592;28;20450;-75
2024/01/17 10:44:21;;;;;;;19.53;9.07;;;;;;;;;;5039209;28;20443;-75
2024/01/17 10:46:50;;;;;;;28.90;14.87;;;;;;;;;;5073374;28;20431;-75
2024/01/17 10:49:17;;;;;;;29.70;14.27;;;;;;;;;;5076749;28;20435;-75
2024/01/17 10:52:05;;;;;;;29.93;14.93;;;;;;;;;;5076780;28;20422;-75
2024/01/17 10:54:48;;;;;;;26.70;13.93;;;;;;;;;;5063867;28;20445;-74
2024/01/17 10:57:15;;;;;;;34.27;13.40;;;;;;;;;;5062919;28;20542;-75
2024/01/17 10:59:43;;;;;;;32.60;13.60;;;;;;;;;;5079519;28;20488;-75
2024/01/17 11:02:14;;;;;;;34.70;16.10;;;;;;;;;;5063132;28;20471;-74
2024/01/17 11:04:40;;;;;;;38.00;16.27;;;;;;;;;;5063073;28;20430;-74
2024/01/17 11:07:07;;;;;;;28.23;14.00;;;;;;;;;;5080016;28;20415;-75
2024/01/17 11:09:34;;;;;;;16.83;8.23;;;;;;;;;;5062630;28;20431;-75
2024/01/17 11:12:01;;;;;;;22.87;12.43;;;;;;;;;;5079149;28;20411;-74
2024/01/17 11:14:30;;;;;;;19.93;10.67;;;;;;;;;;5097535;28;20392;-74
2024/01/17 11:16:59;;;;;;;23.13;11.47;;;;;;;;;;5079815;28;20469;-75
2024/01/17 11:19:26;;;;;;;12.30;6.20;;;;;;;;;;5079764;28;20853;-75
2024/01/17 11:21:53;;;;;;;17.37;8.97;;;;;;;;;;5062574;28;20431;-75
2024/01/17 11:24:32;;;;;;;19.33;10.07;;;;;;;;;;5062858;28;20457;-75
2024/01/17 11:27:03;;;;;;;21.27;9.93;;;;;;;;;;5096619;28;20422;-75
2024/01/17 11:29:48;;;;;;;22.87;10.27;;;;;;;;;;5097171;28;20910;-74
2024/01/17 11:32:36;;;;;;;17.37;9.60;;;;;;;;;;5062730;28;20451;-75
2024/01/17 11:35:03;;;;;;;27.57;13.37;;;;;;;;;;5079821;28;20407;-75
2024/01/17 11:37:47;;;;;;;22.63;11.83;;;;;;;;;;5097007;28;20953;-75
2024/01/17 11:40:15;;;;;;;30.03;14.43;;;;;;;;;;5062709;28;20928;-75
2024/01/17 11:42:42;;;;;;;17.90;8.00;;;;;;;;;;5078495;28;20415;-76
2024/01/17 11:45:09;;;;;;;20.43;10.00;;;;;;;;;;5061898;28;20488;-75
2024/01/17 11:47:45;;;;;;;23.07;8.63;;;;;;;;;;5063509;28;20446;-75
2024/01/17 11:50:12;;;;;;;20.57;9.17;;;;;;;;;;5046252;28;20435;-75
2024/01/17 11:52:40;;;;;;;18.47;9.37;;;;;;;;;;5078994;28;20419;-75
2024/01/17 11:55:07;;;;;;;12.77;5.70;;;;;;;;;;5062008;28;20423;-75
2024/01/17 11:57:37;;;;;;;19.63;8.47;;;;;;;;;;5045100;28;20544;-75
2024/01/17 12:00:04;;;;;;;17.77;9.17;;;;;;;;;;5078767;28;20423;-75
2024/01/17 12:02:33;;;;;;;29.07;13.03;;;;;;;;;;5062747;28;20436;-75
2024/01/17 12:05:01;;;;;;;23.20;12.37;;;;;;;;;;5078376;28;20423;-75
2024/01/17 12:07:29;;;;;;;13.80;7.47;;;;;;;;;;5061839;28;20446;-75
2024/01/17 12:09:56;;;;;;;17.30;8.23;;;;;;;;;;5077943;28;20427;-75
2024/01/17 12:12:24;;;;;;;25.77;11.00;;;;;;;;;;5074224;28;20471;-74
2024/01/17 12:14:51;;;;;;;19.20;8.53;;;;;;;;;;5058312;28;20780;-74
2024/01/17 12:17:20;;;;;;;26.37;8.93;;;;;;;;;;5058604;28;20460;-75
2024/01/17 12:19:47;;;;;;;20.07;10.13;;;;;;;;;;5041175;28;20498;-74
2024/01/17 12:22:14;;;;;;;14.90;7.90;;;;;;;;;;5041206;28;20413;-75
2024/01/17 12:24:40;;;;;;;17.40;9.70;;;;;;;;;;5041342;28;20535;-75
2024/01/17 12:27:16;;;;;;;17.37;9.20;;;;;;;;;;5075355;28;20400;-74
2024/01/17 12:29:45;;;;;;;18.00;9.47;;;;;;;;;;5053414;28;20432;-75
2024/01/17 12:32:12;;;;;;;18.13;9.87;;;;;;;;;;5021601;28;20467;-75
2024/01/17 12:34:39;;;;;;;21.33;10.17;;;;;;;;;;5037762;28;20425;-74
2024/01/17 12:37:06;;;;;;;19.10;8.37;;;;;;;;;;5037951;28;20454;-74
2024/01/17 12:39:36;;;;;;;15.50;8.67;;;;;;;;;;5022240;28;20514;-75
2024/01/17 12:42:03;;;;;;;13.33;6.20;;;;;;;;;;5037837;28;20429;-75
2024/01/17 12:44:30;;;;;;;13.93;7.80;;;;;;;;;;5045169;28;20499;-75
2024/01/17 12:47:14;;;;;;;9.80;4.37;;;;;;;;;;5037038;28;20413;-75
2024/01/17 12:49:43;;;;;;;15.13;7.17;;;;;;;;;;5038139;28;20421;-75
2024/01/17 12:52:11;;;;;;;15.73;8.40;;;;;;;;;;5037972;28;20443;-75
2024/01/17 12:54:38;;;;;;;7.63;3.90;;;;;;;;;;5053958;28;20471;-75
2024/01/17 12:57:05;;;;;;;13.50;5.47;;;;;;;;;;5054754;28;20461;-75
2024/01/17 12:59:49;;;;;;;11.80;5.97;;;;;;;;;;5054274;28;20444;-78
2024/01/17 13:02:16;;;;;;;15.30;7.00;;;;;;;;;;5037967;28;20429;-74
2024/01/17 13:05:03;;;;;;;15.30;6.90;;;;;;;;;;5055672;28;20436;-74
2024/01/17 13:07:30;;;;;;;15.67;7.70;;;;;;;;;;5037821;28;20421;-75
2024/01/17 13:09:57;;;;;;;13.67;6.90;;;;;;;;;;5054832;28;20508;-75
2024/01/17 13:12:24;;;;;;;16.83;7.47;;;;;;;;;;5040467;28;20474;-75
2024/01/17 13:14:56;;;;;;;17.50;8.20;;;;;;;;;;5040783;28;20448;-75
2024/01/17 13:17:23;;;;;;;11.33;4.87;;;;;;;;;;5056156;28;20458;-75
2024/01/17 13:19:50;;;;;;;17.57;8.70;;;;;;;;;;5057008;28;20439;-75
2024/01/17 13:22:18;;;;;;;18.50;8.90;;;;;;;;;;5057233;28;20813;-74
2024/01/17 13:24:45;;;;;;;13.50;6.23;;;;;;;;;;5057397;28;20432;-75
2024/01/17 13:27:15;;;;;;;18.73;9.13;;;;;;;;;;5039748;28;20439;-74
2024/01/17 13:29:41;;;;;;;14.93;7.70;;;;;;;;;;5040630;28;20432;-75
2024/01/17 13:36:04;;;;;;;15.27;7.80;;;;;;;;;;5074232;28;20407;-75
2024/01/17 13:42:33;;;;;;;15.60;7.70;;;;;;;;;;5074127;28;20356;-75
2024/01/17 13:45:18;;;;;;;15.03;6.50;;;;;;;;;;5074268;28;20890;-75
2024/01/17 13:47:45;;;;;;;17.30;8.00;;;;;;;;;;5039707;28;20436;-75
2024/01/17 13:50:21;;;;;;;14.80;7.70;;;;;;;;;;5056028;28;20433;-75
2024/01/17 13:52:51;;;;;;;17.23;8.80;;;;;;;;;;5056626;28;20838;-75
2024/01/17 13:55:19;;;;;;;17.77;8.53;;;;;;;;;;5040077;28;20444;-74
2024/01/17 13:57:46;;;;;;;12.83;6.13;;;;;;;;;;5039685;28;20467;-75
2024/01/17 14:00:16;;;;;;;10.00;5.57;;;;;;;;;;5055988;28;20543;-74
2024/01/17 14:02:43;;;;;;;15.67;8.10;;;;;;;;;;5039969;28;20456;-75
2024/01/17 14:05:10;;;;;;;8.27;3.67;;;;;;;;;;5056514;28;20424;-74
2024/01/17 14:07:38;;;;;;;15.73;7.70;;;;;;;;;;5039349;28;20449;-74
2024/01/17 14:10:07;;;;;;;12.53;6.03;;;;;;;;;;5040043;28;20463;-74
2024/01/17 14:12:34;;;;;;;16.53;8.50;;;;;;;;;;5055717;28;20456;-74
2024/01/17 14:15:03;;;;;;;16.93;7.20;;;;;;;;;;5074068;28;20737;-75
2024/01/17 14:17:33;;;;;;;18.10;8.23;;;;;;;;;;5039549;28;20464;-74
2024/01/17 14:20:04;;;;;;;15.37;8.27;;;;;;;;;;5055746;28;20807;-74
2024/01/17 14:22:32;;;;;;;15.47;8.23;;;;;;;;;;5056608;28;20470;-74
2024/01/17 14:24:59;;;;;;;15.53;8.10;;;;;;;;;;5039249;28;20436;-74
2024/01/17 14:27:26;;;;;;;16.47;7.43;;;;;;;;;;5058851;28;20540;-74
2024/01/17 14:29:52;;;;;;;17.40;7.53;;;;;;;;;;5043649;28;20416;-74
2024/01/17 14:32:20;;;;;;;17.70;8.50;;;;;;;;;;5027028;28;20448;-74
2024/01/17 14:34:46;;;;;;;18.40;6.90;;;;;;;;;;5043315;28;20934;-75
2024/01/17 14:37:13;;;;;;;15.67;7.60;;;;;;;;;;5043239;28;20799;-75
2024/01/17 14:39:40;;;;;;;19.73;8.03;;;;;;;;;;5059624;28;20514;-75
2024/01/17 14:42:07;;;;;;;20.10;8.87;;;;;;;;;;5043057;28;20830;-74
2024/01/17 14:44:34;;;;;;;20.93;8.90;;;;;;;;;;5059643;28;20752;-74
2024/01/17 14:47:01;;;;;;;17.73;8.20;;;;;;;;;;5059052;28;20482;-74
2024/01/17 14:49:28;;;;;;;14.60;7.47;;;;;;;;;;5059213;28;20451;-75
2024/01/17 14:51:55;;;;;;;21.67;8.93;;;;;;;;;;5059662;28;20840;-75
2024/01/17 14:54:22;;;;;;;18.63;8.83;;;;;;;;;;5042540;28;20444;-75
2024/01/17 14:56:50;;;;;;;16.00;8.07;;;;;;;;;;5068694;28;20468;-74
2024/01/17 14:59:17;;;;;;;17.83;7.60;;;;;;;;;;5079327;28;20443;-74
2024/01/17 15:01:44;;;;;;;13.43;8.00;;;;;;;;;;5079603;28;20419;-75
2024/01/17 15:04:11;;;;;;;19.60;8.93;;;;;;;;;;5045942;28;20424;-75
2024/01/17 15:06:38;;;;;;;15.27;7.87;;;;;;;;;;5062663;28;20488;-74
2024/01/17 15:09:07;;;;;;;12.77;6.60;;;;;;;;;;5079466;28;20481;-68
2024/01/17 15:11:34;;;;;;;16.47;8.37;;;;;;;;;;5062525;28;20440;-68
2024/01/17 15:14:01;;;;;;;13.53;6.57;;;;;;;;;;5079081;28;20458;-68
2024/01/17 15:16:28;;;;;;;13.63;6.40;;;;;;;;;;5079195;28;20431;-68
2024/01/17 15:18:54;;;;;;;12.30;6.77;;;;;;;;;;5079056;28;20461;-69
2024/01/17 15:21:21;;;;;;;13.73;6.83;;;;;;;;;;5079055;28;20805;-69
2024/01/17 15:23:48;;;;;;;14.33;8.50;;;;;;;;;;5078788;28;20414;-68
2024/01/17 15:26:15;;;;;;;12.93;5.87;;;;;;;;;;5078729;28;20926;-68
2024/01/17 15:28:42;;;;;;;19.70;10.03;;;;;;;;;;5079271;28;20805;-68
2024/01/17 15:31:09;;;;;;;20.60;10.20;;;;;;;;;;5078692;28;20820;-68
2024/01/17 15:33:36;;;;;;;19.13;9.73;;;;;;;;;;5097164;28;20435;-68
2024/01/17 15:36:05;;;;;;;15.67;7.37;;;;;;;;;;5078726;28;20484;-68
2024/01/17 15:38:32;;;;;;;22.20;10.00;;;;;;;;;;5061555;28;20510;-68
2024/01/17 15:41:00;;;;;;;27.70;12.07;;;;;;;;;;5096543;28;20526;-69
2024/01/17 15:43:27;;;;;;;20.30;9.53;;;;;;;;;;5078780;28;20790;-68
2024/01/17 15:45:54;;;;;;;27.03;11.47;;;;;;;;;;5079095;28;20973;-68
2024/01/17 15:48:21;;;;;;;17.40;9.47;;;;;;;;;;5078335;28;20440;-69
2024/01/17 15:50:48;;;;;;;25.03;10.87;;;;;;;;;;5096776;28;20435;-69
2024/01/17 15:53:15;;;;;;;26.67;12.07;;;;;;;;;;5096367;28;20415;-68
2024/01/17 15:55:42;;;;;;;35.10;15.47;;;;;;;;;;5078271;28;20439;-69
2024/01/17 15:58:12;;;;;;;30.87;12.83;;;;;;;;;;5077776;28;20551;-68
2024/01/17 16:00:40;;;;;;;22.03;11.97;;;;;;;;;;5062140;28;20412;-68
2024/01/17 16:03:07;;;;;;;22.57;11.40;;;;;;;;;;5078393;28;20451;-68
2024/01/17 16:05:51;;;;;;;29.60;13.13;;;;;;;;;;5096206;28;20391;-68
2024/01/17 16:08:18;;;;;;;32.03;13.17;;;;;;;;;;5095978;28;20412;-68
2024/01/17 16:10:48;;;;;;;29.60;12.97;;;;;;;;;;5044690;28;20539;-69
2024/01/17 16:13:14;;;;;;;29.27;13.70;;;;;;;;;;5095816;28;20462;-68
2024/01/17 16:15:45;;;;;;;38.80;16.50;;;;;;;;;;5095777;28;20463;-68
2024/01/17 16:18:12;;;;;;;53.00;20.43;;;;;;;;;;5078453;28;20932;-68